Time;durP1;ratioP1;P1;durP2;ratioP2;P2;SDS_P1;SDS_P2;PMS_P1;PMS_P2;Temp;Humidity;BMP_temperature;BMP_pressure;BME280_temperature;BME280_humidity;BME280_pressure;Samples;Min_cycle;Max_cycle;Signal;HPM_P1;HPM_P2
2023/02/03 00:02:43;;;;;;;3.70;3.50;;;;;;;;;;6236315;28;20294;-77
2023/02/03 00:05:48;;;;;;;4.03;3.73;;;;;;;;;;6238256;28;20297;-77
2023/02/03 00:08:57;;;;;;;3.70;3.40;;;;;;;;;;6236412;28;20297;-77
2023/02/03 00:12:02;;;;;;;7.43;3.60;;;;;;;;;;6249243;28;20352;-78
2023/02/03 00:15:10;;;;;;;3.50;3.20;;;;;;;;;;6237401;28;20606;-77
2023/02/03 00:18:15;;;;;;;3.87;2.93;;;;;;;;;;6237360;28;20286;-78
2023/02/03 00:21:20;;;;;;;3.10;3.00;;;;;;;;;;6237341;28;20294;-77
2023/02/03 00:24:27;;;;;;;3.77;3.30;;;;;;;;;;6236828;28;20477;-78
2023/02/03 00:27:33;;;;;;;3.27;3.00;;;;;;;;;;6235946;28;20468;-78
2023/02/03 00:30:38;;;;;;;3.53;3.23;;;;;;;;;;6235679;28;20297;-78
2023/02/03 00:33:44;;;;;;;3.10;2.90;;;;;;;;;;6252001;28;20297;-78
2023/02/03 00:36:49;;;;;;;3.63;3.33;;;;;;;;;;6237188;28;20314;-77
2023/02/03 00:39:56;;;;;;;3.77;3.27;;;;;;;;;;6236700;28;20294;-77
2023/02/03 00:43:02;;;;;;;3.53;3.30;;;;;;;;;;6236470;28;20297;-77
2023/02/03 00:46:11;;;;;;;3.67;3.33;;;;;;;;;;6235934;28;20331;-76
2023/02/03 00:49:16;;;;;;;2.97;2.80;;;;;;;;;;6235890;28;20301;-77
2023/02/03 00:52:21;;;;;;;4.80;3.40;;;;;;;;;;6237268;28;20294;-76
2023/02/03 00:55:28;;;;;;;4.43;3.07;;;;;;;;;;6237602;28;20290;-77
2023/02/03 00:58:33;;;;;;;3.63;3.33;;;;;;;;;;6235827;28;20375;-77
2023/02/03 01:01:40;;;;;;;4.17;3.13;;;;;;;;;;6241565;28;20300;-78
2023/02/03 01:04:46;;;;;;;3.67;3.33;;;;;;;;;;6243026;28;20586;-79
2023/02/03 01:07:51;;;;;;;2.90;2.80;;;;;;;;;;6241783;28;20451;-77
2023/02/03 01:10:57;;;;;;;12.13;3.00;;;;;;;;;;6260497;28;20274;-78
2023/02/03 01:14:03;;;;;;;2.83;2.63;;;;;;;;;;6259385;28;20478;-77
2023/02/03 01:17:08;;;;;;;2.77;2.67;;;;;;;;;;6259681;28;20269;-77
2023/02/03 01:20:15;;;;;;;4.63;2.70;;;;;;;;;;6260203;28;20296;-77
2023/02/03 01:23:21;;;;;;;4.23;3.10;;;;;;;;;;6259949;28;20293;-77
2023/02/03 01:26:27;;;;;;;4.80;2.80;;;;;;;;;;6260580;28;20296;-77
2023/02/03 01:29:33;;;;;;;3.27;2.90;;;;;;;;;;6260311;28;20572;-77
2023/02/03 01:32:38;;;;;;;2.80;2.70;;;;;;;;;;6259545;28;20308;-78
2023/02/03 01:35:44;;;;;;;3.10;3.00;;;;;;;;;;6242993;28;20293;-78
2023/02/03 01:38:48;;;;;;;3.50;3.30;;;;;;;;;;6260846;28;20404;-77
2023/02/03 01:41:56;;;;;;;2.90;2.70;;;;;;;;;;6259985;28;20291;-77
2023/02/03 01:45:01;;;;;;;3.23;3.00;;;;;;;;;;6244311;28;20354;-76
2023/02/03 01:48:07;;;;;;;2.80;2.67;;;;;;;;;;6262711;28;20297;-77
2023/02/03 01:51:40;;;;;;;2.90;2.80;;;;;;;;;;6262296;28;20287;-75
2023/02/03 01:54:47;;;;;;;3.70;3.23;;;;;;;;;;6252657;28;20297;-77
2023/02/03 01:57:57;;;;;;;3.37;3.17;;;;;;;;;;6270654;28;20290;-75
2023/02/03 02:01:02;;;;;;;3.23;3.00;;;;;;;;;;6264928;28;20288;-77
2023/02/03 02:04:09;;;;;;;3.50;3.20;;;;;;;;;;6259667;28;20283;-76
2023/02/03 02:07:15;;;;;;;3.60;3.30;;;;;;;;;;6234725;28;20292;-78
2023/02/03 02:10:20;;;;;;;3.27;3.03;;;;;;;;;;6242374;28;20501;-77
2023/02/03 02:13:28;;;;;;;3.47;3.17;;;;;;;;;;6245501;28;20296;-77
2023/02/03 02:16:42;;;;;;;3.10;2.90;;;;;;;;;;6264024;28;20292;-77
2023/02/03 02:20:16;;;;;;;6.20;3.07;;;;;;;;;;6265194;28;20572;-77
2023/02/03 02:23:56;;;;;;;3.30;3.10;;;;;;;;;;6221315;28;20296;-77
2023/02/03 02:27:06;;;;;;;7.13;3.50;;;;;;;;;;6211558;28;20295;-77
2023/02/03 02:30:50;;;;;;;4.73;3.40;;;;;;;;;;6239295;28;20301;-77
2023/02/03 02:34:01;;;;;;;3.43;3.23;;;;;;;;;;6212655;28;20304;-77
2023/02/03 02:37:17;;;;;;;4.87;3.93;;;;;;;;;;6241361;28;20296;-77
2023/02/03 02:40:29;;;;;;;3.30;3.17;;;;;;;;;;6229875;28;20490;-77
2023/02/03 02:43:42;;;;;;;3.57;3.37;;;;;;;;;;6230533;28;20331;-76
2023/02/03 02:46:49;;;;;;;4.20;3.47;;;;;;;;;;6246969;28;20481;-77
2023/02/03 02:50:01;;;;;;;3.40;3.30;;;;;;;;;;6262741;28;20303;-77
2023/02/03 02:53:06;;;;;;;5.40;3.67;;;;;;;;;;6246419;28;20300;-79
2023/02/03 02:56:13;;;;;;;3.20;3.00;;;;;;;;;;6247028;28;20288;-77
2023/02/03 02:59:20;;;;;;;3.13;2.97;;;;;;;;;;6246384;28;20287;-77
2023/02/03 03:02:33;;;;;;;3.00;2.80;;;;;;;;;;6263062;28;20299;-77
2023/02/03 03:05:43;;;;;;;5.37;2.83;;;;;;;;;;6245042;28;20311;-77
2023/02/03 03:08:56;;;;;;;5.73;2.97;;;;;;;;;;6262871;28;20297;-78
2023/02/03 03:12:05;;;;;;;4.83;3.17;;;;;;;;;;6245727;28;20566;-77
2023/02/03 03:15:14;;;;;;;5.33;3.27;;;;;;;;;;6245751;28;20299;-78
2023/02/03 03:18:23;;;;;;;3.80;2.90;;;;;;;;;;6245667;28;20458;-77
2023/02/03 03:21:37;;;;;;;3.00;2.70;;;;;;;;;;6245836;28;20388;-76
2023/02/03 03:24:46;;;;;;;3.20;2.90;;;;;;;;;;6262598;28;20295;-77
2023/02/03 03:27:54;;;;;;;3.47;2.80;;;;;;;;;;6261713;28;20290;-76
2023/02/03 03:31:00;;;;;;;2.53;2.43;;;;;;;;;;6245675;28;20303;-77
2023/02/03 03:34:05;;;;;;;5.73;3.00;;;;;;;;;;6262832;28;20308;-76
2023/02/03 03:37:17;;;;;;;4.43;3.10;;;;;;;;;;6246637;28;20307;-77
2023/02/03 03:40:25;;;;;;;3.03;2.83;;;;;;;;;;6245322;28;20453;-77
2023/02/03 03:43:33;;;;;;;6.83;3.10;;;;;;;;;;6262058;28;20491;-77
2023/02/03 03:46:43;;;;;;;2.70;2.50;;;;;;;;;;6262651;28;20478;-77
2023/02/03 03:49:49;;;;;;;3.00;2.80;;;;;;;;;;6262171;28;20316;-77
2023/02/03 03:52:56;;;;;;;4.60;2.80;;;;;;;;;;6242641;28;20295;-77
2023/02/03 03:56:02;;;;;;;4.20;3.23;;;;;;;;;;6262666;28;20284;-77
2023/02/03 03:59:08;;;;;;;2.67;2.47;;;;;;;;;;6260591;28;20605;-78
2023/02/03 04:02:14;;;;;;;3.67;2.40;;;;;;;;;;6243900;28;20297;-77
2023/02/03 04:05:20;;;;;;;2.67;2.57;;;;;;;;;;6209587;28;20292;-76
2023/02/03 04:08:29;;;;;;;2.70;2.60;;;;;;;;;;6212786;28;20285;-76
2023/02/03 04:14:56;;;;;;;2.70;2.60;;;;;;;;;;6212569;28;20306;-76
2023/02/03 04:18:05;;;;;;;2.67;2.50;;;;;;;;;;6212928;28;20293;-77
2023/02/03 04:21:13;;;;;;;4.27;2.53;;;;;;;;;;6212053;28;20297;-77
2023/02/03 04:24:19;;;;;;;4.07;2.50;;;;;;;;;;6227636;28;20302;-76
2023/02/03 04:27:25;;;;;;;4.57;2.57;;;;;;;;;;6211880;28;20301;-76
2023/02/03 04:30:30;;;;;;;3.03;2.80;;;;;;;;;;6213084;28;20312;-76
2023/02/03 04:33:36;;;;;;;2.90;2.70;;;;;;;;;;6211570;28;20302;-76
2023/02/03 04:36:42;;;;;;;2.83;2.57;;;;;;;;;;6212456;28;20293;-76
2023/02/03 04:39:50;;;;;;;2.90;2.70;;;;;;;;;;6212278;28;20294;-76
2023/02/03 04:42:56;;;;;;;2.63;2.50;;;;;;;;;;6212754;28;20304;-77
2023/02/03 04:46:01;;;;;;;6.10;2.93;;;;;;;;;;6212418;28;20306;-76
2023/02/03 04:49:11;;;;;;;2.73;2.50;;;;;;;;;;6212406;28;20292;-77
2023/02/03 04:52:18;;;;;;;2.57;2.47;;;;;;;;;;6213119;28;20298;-76
2023/02/03 04:55:27;;;;;;;9.90;2.97;;;;;;;;;;6212065;28;20338;-77
2023/02/03 04:58:33;;;;;;;13.50;3.30;;;;;;;;;;6211886;28;20292;-76
2023/02/03 05:01:39;;;;;;;4.87;2.73;;;;;;;;;;6225422;28;20300;-77
2023/02/03 05:04:44;;;;;;;8.93;3.23;;;;;;;;;;6260111;28;20480;-77
2023/02/03 05:07:49;;;;;;;6.43;2.70;;;;;;;;;;6261204;28;20304;-77
2023/02/03 05:10:56;;;;;;;3.23;2.93;;;;;;;;;;6259353;28;20290;-77
2023/02/03 05:14:02;;;;;;;3.37;2.63;;;;;;;;;;6242608;28;20300;-77
2023/02/03 05:17:07;;;;;;;6.00;3.17;;;;;;;;;;6259301;28;20277;-77
2023/02/03 05:20:13;;;;;;;3.33;3.13;;;;;;;;;;6263703;28;20291;-76
2023/02/03 05:23:19;;;;;;;3.53;2.57;;;;;;;;;;6260876;28;20326;-77
2023/02/03 05:26:25;;;;;;;5.60;2.60;;;;;;;;;;6260868;28;20288;-76
2023/02/03 05:29:30;;;;;;;9.10;3.13;;;;;;;;;;6259931;28;20288;-77
2023/02/03 05:32:35;;;;;;;4.30;2.50;;;;;;;;;;6259388;28;20296;-77
2023/02/03 05:35:41;;;;;;;3.13;2.83;;;;;;;;;;6260142;28;20295;-78
2023/02/03 05:38:47;;;;;;;2.80;2.30;;;;;;;;;;6259161;28;20292;-76
2023/02/03 05:41:56;;;;;;;5.67;2.73;;;;;;;;;;6243238;28;20284;-75
2023/02/03 05:45:04;;;;;;;2.70;2.47;;;;;;;;;;6259961;28;20308;-77
2023/02/03 05:48:12;;;;;;;2.83;2.63;;;;;;;;;;6260138;28;20293;-77
2023/02/03 05:51:19;;;;;;;3.03;2.87;;;;;;;;;;6259463;28;20664;-77
2023/02/03 05:54:24;;;;;;;4.53;2.80;;;;;;;;;;6241937;28;20312;-77
2023/02/03 05:57:31;;;;;;;4.33;2.73;;;;;;;;;;6243491;28;20304;-76
2023/02/03 06:00:36;;;;;;;8.17;3.13;;;;;;;;;;6259881;28;20298;-76
2023/02/03 06:03:41;;;;;;;2.90;2.70;;;;;;;;;;6259618;28;20300;-77
2023/02/03 06:06:50;;;;;;;4.43;2.60;;;;;;;;;;6260288;28;20297;-76
2023/02/03 06:09:54;;;;;;;5.20;3.33;;;;;;;;;;6241653;28;20299;-77
2023/02/03 06:13:08;;;;;;;5.13;3.10;;;;;;;;;;6251514;28;20295;-77
2023/02/03 06:16:14;;;;;;;3.77;3.40;;;;;;;;;;6258323;28;20293;-79
2023/02/03 06:19:19;;;;;;;5.80;3.03;;;;;;;;;;6259495;28;20309;-77
2023/02/03 06:22:25;;;;;;;10.03;3.63;;;;;;;;;;6259931;28;20298;-78
2023/02/03 06:25:31;;;;;;;3.30;3.00;;;;;;;;;;6233021;28;20308;-77
2023/02/03 06:28:38;;;;;;;3.60;3.30;;;;;;;;;;6217555;28;20293;-78
2023/02/03 06:31:43;;;;;;;5.90;3.47;;;;;;;;;;6235176;28;20298;-77
2023/02/03 06:34:48;;;;;;;3.57;3.37;;;;;;;;;;6234538;28;20317;-77
2023/02/03 06:37:53;;;;;;;5.63;3.60;;;;;;;;;;6234038;28;20365;-77
2023/02/03 06:40:58;;;;;;;6.07;3.90;;;;;;;;;;6234477;28;20472;-78
2023/02/03 06:44:05;;;;;;;6.60;3.37;;;;;;;;;;6234695;28;20293;-77
2023/02/03 06:47:12;;;;;;;3.60;3.30;;;;;;;;;;6218178;28;20300;-78
2023/02/03 06:50:18;;;;;;;5.77;3.77;;;;;;;;;;6218137;28;20384;-77
2023/02/03 06:53:23;;;;;;;4.63;3.23;;;;;;;;;;6235247;28;20292;-76
2023/02/03 06:56:28;;;;;;;4.27;3.37;;;;;;;;;;6235282;28;20286;-75
2023/02/03 06:59:35;;;;;;;3.97;3.77;;;;;;;;;;6244554;28;20297;-76
2023/02/03 07:02:40;;;;;;;3.83;3.43;;;;;;;;;;6246217;28;20302;-77
2023/02/03 07:05:45;;;;;;;4.20;3.80;;;;;;;;;;6247117;28;20346;-76
2023/02/03 07:08:50;;;;;;;3.97;3.73;;;;;;;;;;6248626;28;20425;-76
2023/02/03 07:11:55;;;;;;;6.77;3.60;;;;;;;;;;6265296;28;20293;-75
2023/02/03 07:15:02;;;;;;;3.93;3.63;;;;;;;;;;6271579;28;20464;-77
2023/02/03 07:18:08;;;;;;;4.27;3.87;;;;;;;;;;6264460;28;20571;-77
2023/02/03 07:21:14;;;;;;;5.50;3.47;;;;;;;;;;6262687;28;20299;-78
2023/02/03 07:24:26;;;;;;;3.93;3.63;;;;;;;;;;6263309;28;20300;-76
2023/02/03 07:27:32;;;;;;;8.20;4.37;;;;;;;;;;6263969;28;20292;-78
2023/02/03 07:30:38;;;;;;;4.33;4.03;;;;;;;;;;6263247;28;20625;-76
2023/02/03 07:33:44;;;;;;;4.20;3.87;;;;;;;;;;6263137;28;20297;-77
2023/02/03 07:36:49;;;;;;;4.47;4.07;;;;;;;;;;6232083;28;20301;-75
2023/02/03 07:39:54;;;;;;;4.20;3.97;;;;;;;;;;6269926;28;20325;-76
2023/02/03 07:42:59;;;;;;;6.90;4.10;;;;;;;;;;6267358;28;20308;-78
2023/02/03 07:46:06;;;;;;;4.97;4.30;;;;;;;;;;6266619;28;20307;-78
2023/02/03 07:49:12;;;;;;;5.03;4.60;;;;;;;;;;6263326;28;20456;-77
2023/02/03 07:52:18;;;;;;;4.83;4.43;;;;;;;;;;6263058;28;20303;-78
2023/02/03 07:55:25;;;;;;;4.90;4.47;;;;;;;;;;6244907;28;20492;-78
2023/02/03 07:58:31;;;;;;;8.20;4.27;;;;;;;;;;6262388;28;20306;-77
2023/02/03 08:01:38;;;;;;;4.40;4.10;;;;;;;;;;6262142;28;20495;-77
2023/02/03 08:04:43;;;;;;;5.43;4.27;;;;;;;;;;6262071;28;20285;-77
2023/02/03 08:07:48;;;;;;;4.53;4.13;;;;;;;;;;6245101;28;20302;-77
2023/02/03 08:10:56;;;;;;;5.03;4.50;;;;;;;;;;6259754;28;20591;-77
2023/02/03 08:14:01;;;;;;;5.03;4.50;;;;;;;;;;6261618;28;20567;-76
2023/02/03 08:17:07;;;;;;;6.07;4.60;;;;;;;;;;6262293;28;20391;-78
2023/02/03 08:20:13;;;;;;;5.07;4.60;;;;;;;;;;6244512;28;20437;-78
2023/02/03 08:23:19;;;;;;;8.63;4.90;;;;;;;;;;6244350;28;20554;-77
2023/02/03 08:26:24;;;;;;;7.30;4.70;;;;;;;;;;6262040;28;20307;-78
2023/02/03 08:29:29;;;;;;;6.47;4.30;;;;;;;;;;6261352;28;20290;-77
2023/02/03 08:32:36;;;;;;;5.37;4.60;;;;;;;;;;6260813;28;20294;-76
2023/02/03 08:35:41;;;;;;;9.13;4.67;;;;;;;;;;6260776;28;20310;-76
2023/02/03 08:38:46;;;;;;;7.40;4.33;;;;;;;;;;6261236;28;20300;-77
2023/02/03 08:41:52;;;;;;;5.97;5.03;;;;;;;;;;6261259;28;20290;-77
2023/02/03 08:44:57;;;;;;;6.37;5.10;;;;;;;;;;6261414;28;20302;-76
2023/02/03 08:48:04;;;;;;;6.93;4.60;;;;;;;;;;6261558;28;20298;-77
2023/02/03 08:51:12;;;;;;;4.90;4.50;;;;;;;;;;6260150;28;20294;-77
2023/02/03 08:54:18;;;;;;;10.63;4.80;;;;;;;;;;6261340;28;20461;-77
2023/02/03 08:57:23;;;;;;;4.73;4.43;;;;;;;;;;6243805;28;20302;-76
2023/02/03 09:00:28;;;;;;;5.20;4.67;;;;;;;;;;6260338;28;20370;-76
2023/02/03 09:03:35;;;;;;;9.90;4.77;;;;;;;;;;6235493;28;20314;-75
2023/02/03 09:06:42;;;;;;;9.23;5.77;;;;;;;;;;6237174;28;20295;-76
2023/02/03 09:09:47;;;;;;;9.50;5.90;;;;;;;;;;6236982;28;20295;-77
2023/02/03 09:12:52;;;;;;;9.80;6.23;;;;;;;;;;6236289;28;20583;-76
2023/02/03 09:16:00;;;;;;;8.47;4.97;;;;;;;;;;6236103;28;20299;-76
2023/02/03 09:19:08;;;;;;;11.37;5.07;;;;;;;;;;6235843;28;20296;-76
2023/02/03 09:22:15;;;;;;;11.87;5.10;;;;;;;;;;6236819;28;20311;-78
2023/02/03 09:25:21;;;;;;;10.50;4.70;;;;;;;;;;6236411;28;20317;-76
2023/02/03 09:28:26;;;;;;;6.43;4.50;;;;;;;;;;6236273;28;20302;-77
2023/02/03 09:31:31;;;;;;;6.73;4.30;;;;;;;;;;6235377;28;20298;-76
2023/02/03 09:34:41;;;;;;;4.07;3.73;;;;;;;;;;6235880;28;20466;-76
2023/02/03 09:37:47;;;;;;;4.33;3.77;;;;;;;;;;6235449;28;20303;-77
2023/02/03 09:40:55;;;;;;;4.33;4.03;;;;;;;;;;6234967;28;20303;-77
2023/02/03 09:44:20;;;;;;;3.90;3.70;;;;;;;;;;6236425;28;20301;-76
2023/02/03 09:47:27;;;;;;;3.27;2.97;;;;;;;;;;6252884;28;20299;-78
2023/02/03 09:50:36;;;;;;;3.83;3.30;;;;;;;;;;6218577;28;20299;-76
2023/02/03 09:53:48;;;;;;;3.50;3.30;;;;;;;;;;6235331;28;20287;-77
2023/02/03 09:56:54;;;;;;;4.30;4.00;;;;;;;;;;6235771;28;20319;-77
2023/02/03 10:00:15;;;;;;;4.87;4.00;;;;;;;;;;6235920;28;20298;-77
2023/02/03 10:03:28;;;;;;;3.67;3.37;;;;;;;;;;6234683;28;20295;-78
2023/02/03 10:06:38;;;;;;;2.90;2.80;;;;;;;;;;6233626;28;20312;-76
2023/02/03 10:09:53;;;;;;;3.20;2.80;;;;;;;;;;6235364;28;20298;-77
2023/02/03 10:13:17;;;;;;;2.80;2.60;;;;;;;;;;6227464;28;20298;-77
2023/02/03 10:16:43;;;;;;;4.13;3.73;;;;;;;;;;6235196;28;20301;-76
2023/02/03 10:19:51;;;;;;;3.83;2.87;;;;;;;;;;6235372;28;20304;-78
2023/02/03 10:23:01;;;;;;;3.27;3.07;;;;;;;;;;6234381;28;20273;-77
2023/02/03 10:26:10;;;;;;;3.43;3.13;;;;;;;;;;6233553;28;20301;-75
2023/02/03 10:29:20;;;;;;;3.20;2.47;;;;;;;;;;6235312;28;20292;-75
2023/02/03 10:32:27;;;;;;;2.77;2.57;;;;;;;;;;6236632;28;20358;-77
2023/02/03 10:35:39;;;;;;;5.90;3.27;;;;;;;;;;6240513;28;20289;-78
2023/02/03 10:38:52;;;;;;;3.10;2.90;;;;;;;;;;6238371;28;20589;-76
2023/02/03 10:41:58;;;;;;;2.27;2.20;;;;;;;;;;6239695;28;20285;-77
2023/02/03 10:45:03;;;;;;;2.20;2.20;;;;;;;;;;6239326;28;20300;-77
2023/02/03 10:48:15;;;;;;;2.30;2.30;;;;;;;;;;6239670;28;20325;-77
2023/02/03 10:51:23;;;;;;;2.60;2.60;;;;;;;;;;6239275;28;20478;-76
2023/02/03 10:54:31;;;;;;;2.37;2.37;;;;;;;;;;6238899;28;20297;-78
2023/02/03 10:57:38;;;;;;;2.20;2.10;;;;;;;;;;6240357;28;20305;-77
2023/02/03 11:00:44;;;;;;;2.00;1.90;;;;;;;;;;6239074;28;20300;-79
2023/02/03 11:04:02;;;;;;;3.17;2.97;;;;;;;;;;6262961;28;20289;-78
2023/02/03 11:07:21;;;;;;;2.30;1.90;;;;;;;;;;6263998;28;20294;-77
2023/02/03 11:10:33;;;;;;;2.93;2.10;;;;;;;;;;6264583;28;20594;-78
2023/02/03 11:13:38;;;;;;;1.70;1.70;;;;;;;;;;6263780;28;20452;-78
2023/02/03 11:16:47;;;;;;;1.83;1.83;;;;;;;;;;6246950;28;20285;-77
2023/02/03 11:19:58;;;;;;;1.70;1.60;;;;;;;;;;6259744;28;20470;-78
2023/02/03 11:23:05;;;;;;;2.93;2.83;;;;;;;;;;6263772;28;20265;-78
2023/02/03 11:26:14;;;;;;;2.50;2.30;;;;;;;;;;6263060;28;20531;-77
2023/02/03 11:29:22;;;;;;;2.50;2.30;;;;;;;;;;6263057;28;20366;-77
2023/02/03 11:32:32;;;;;;;2.63;2.43;;;;;;;;;;6263636;28;20298;-76
2023/02/03 11:35:40;;;;;;;2.73;2.53;;;;;;;;;;6235419;28;20292;-77
2023/02/03 11:38:46;;;;;;;2.93;1.67;;;;;;;;;;6261894;28;20348;-78
2023/02/03 11:41:53;;;;;;;1.83;1.83;;;;;;;;;;6263722;28;20315;-78
2023/02/03 11:45:14;;;;;;;2.17;2.07;;;;;;;;;;6262849;28;20313;-77
2023/02/03 11:48:28;;;;;;;1.60;1.60;;;;;;;;;;6262853;28;20298;-78
2023/02/03 11:51:40;;;;;;;1.70;1.70;;;;;;;;;;6244994;28;20292;-78
2023/02/03 11:54:52;;;;;;;7.50;3.77;;;;;;;;;;6262381;28;20317;-77
2023/02/03 11:58:38;;;;;;;2.93;1.97;;;;;;;;;;6262228;28;20294;-77
2023/02/03 12:01:57;;;;;;;2.07;1.97;;;;;;;;;;6261035;28;20298;-77
2023/02/03 12:05:13;;;;;;;1.90;1.80;;;;;;;;;;6260362;28;20295;-76
2023/02/03 12:08:28;;;;;;;2.20;1.50;;;;;;;;;;6261939;28;20295;-77
2023/02/03 12:11:45;;;;;;;1.60;1.50;;;;;;;;;;6260530;28;20282;-78
2023/02/03 12:15:00;;;;;;;1.37;1.37;;;;;;;;;;6259598;28;20303;-77
2023/02/03 12:18:15;;;;;;;1.37;1.37;;;;;;;;;;6261533;28;20524;-78
2023/02/03 12:21:41;;;;;;;1.43;1.43;;;;;;;;;;6260803;28;20302;-78
2023/02/03 12:28:26;;;;;;;1.50;1.50;;;;;;;;;;6260321;28;20586;-78
2023/02/03 12:31:44;;;;;;;1.20;1.20;;;;;;;;;;6259710;28;20491;-77
2023/02/03 12:34:54;;;;;;;1.10;1.10;;;;;;;;;;6259048;28;20299;-77
2023/02/03 12:38:03;;;;;;;1.17;1.10;;;;;;;;;;6259309;28;20275;-75
2023/02/03 12:41:13;;;;;;;1.30;1.30;;;;;;;;;;6260116;28;20298;-77
2023/02/03 12:44:22;;;;;;;2.27;2.27;;;;;;;;;;6260062;28;20294;-77
2023/02/03 12:47:32;;;;;;;1.30;1.30;;;;;;;;;;6260758;28;20454;-76
2023/02/03 12:50:40;;;;;;;1.90;1.10;;;;;;;;;;6260073;28;20293;-77
2023/02/03 12:53:51;;;;;;;1.67;1.10;;;;;;;;;;6242238;28;20302;-77
2023/02/03 12:57:01;;;;;;;2.30;2.20;;;;;;;;;;6259247;28;20289;-76
2023/02/03 13:00:20;;;;;;;1.67;1.67;;;;;;;;;;6242543;28;20294;-76
2023/02/03 13:03:31;;;;;;;1.90;1.80;;;;;;;;;;6218598;28;1212287;-77
2023/02/03 13:06:43;;;;;;;2.00;1.90;;;;;;;;;;6259905;28;20297;-77
2023/02/03 13:09:53;;;;;;;1.77;1.67;;;;;;;;;;6243019;28;20303;-78
2023/02/03 13:12:59;;;;;;;1.20;1.20;;;;;;;;;;6226984;28;20298;-77
2023/02/03 13:16:07;;;;;;;1.33;1.23;;;;;;;;;;6259159;28;20301;-76
2023/02/03 13:19:17;;;;;;;1.27;1.20;;;;;;;;;;6260313;28;20294;-77
2023/02/03 13:22:23;;;;;;;1.00;1.00;;;;;;;;;;6265405;28;20294;-76
2023/02/03 13:25:33;;;;;;;1.30;1.30;;;;;;;;;;6268863;28;20307;-76
2023/02/03 13:28:52;;;;;;;1.30;1.30;;;;;;;;;;6269675;28;20294;-77
2023/02/03 13:32:05;;;;;;;1.10;1.10;;;;;;;;;;6260564;28;20570;-76
2023/02/03 13:35:31;;;;;;;1.00;1.00;;;;;;;;;;6259839;28;20576;-77
2023/02/03 13:39:21;;;;;;;1.47;1.37;;;;;;;;;;6259549;28;20314;-77
2023/02/03 13:42:27;;;;;;;1.70;1.60;;;;;;;;;;6260026;28;20299;-77
2023/02/03 13:45:37;;;;;;;2.10;0.90;;;;;;;;;;6259533;28;20606;-77
2023/02/03 13:48:45;;;;;;;0.90;0.90;;;;;;;;;;6259370;28;20395;-77
2023/02/03 13:51:52;;;;;;;1.23;1.10;;;;;;;;;;6259450;28;20315;-77
2023/02/03 13:54:58;;;;;;;3.90;1.10;;;;;;;;;;6242174;28;20302;-77
2023/02/03 13:58:05;;;;;;;1.10;1.10;;;;;;;;;;6243049;28;20441;-77
2023/02/03 14:01:33;;;;;;;1.20;1.20;;;;;;;;;;6259073;28;20309;-77
2023/02/03 14:04:56;;;;;;;1.00;1.00;;;;;;;;;;6241229;28;20290;-78
2023/02/03 14:08:37;;;;;;;1.07;1.07;;;;;;;;;;6240705;28;20572;-76
2023/02/03 14:11:46;;;;;;;1.80;1.80;;;;;;;;;;6258559;28;20299;-77
2023/02/03 14:15:03;;;;;;;3.90;2.23;;;;;;;;;;6259290;28;20295;-77
2023/02/03 14:18:31;;;;;;;1.70;1.60;;;;;;;;;;6259644;28;20301;-77
2023/02/03 14:21:40;;;;;;;1.40;1.30;;;;;;;;;;6258966;28;20302;-78
2023/02/03 14:24:48;;;;;;;1.63;1.10;;;;;;;;;;6258689;28;20303;-78
2023/02/03 14:28:02;;;;;;;1.73;1.27;;;;;;;;;;6259608;28;20305;-77
2023/02/03 14:31:15;;;;;;;2.97;2.60;;;;;;;;;;6241304;28;20299;-77
2023/02/03 14:34:35;;;;;;;5.90;2.00;;;;;;;;;;6260428;28;20290;-76
2023/02/03 14:37:52;;;;;;;1.73;1.70;;;;;;;;;;6233407;28;20303;-76
2023/02/03 14:41:05;;;;;;;1.53;1.53;;;;;;;;;;6258608;28;20416;-77
2023/02/03 14:44:23;;;;;;;3.77;1.30;;;;;;;;;;6256895;28;20341;-77
2023/02/03 14:47:46;;;;;;;1.57;1.50;;;;;;;;;;6235760;28;20329;-78
2023/02/03 14:51:00;;;;;;;2.30;1.53;;;;;;;;;;6258885;28;20546;-77
2023/02/03 14:54:33;;;;;;;1.50;1.50;;;;;;;;;;6258153;28;20289;-77
2023/02/03 14:57:43;;;;;;;1.63;1.53;;;;;;;;;;6240863;28;20298;-77
2023/02/03 15:00:51;;;;;;;1.40;1.40;;;;;;;;;;6240657;28;20251;-77
2023/02/03 15:04:22;;;;;;;1.27;1.27;;;;;;;;;;6234270;28;20301;-78
2023/02/03 15:07:43;;;;;;;1.20;1.20;;;;;;;;;;6234805;28;20559;-79
2023/02/03 15:10:48;;;;;;;1.40;1.40;;;;;;;;;;6234223;28;20294;-77
2023/02/03 15:13:56;;;;;;;1.47;1.47;;;;;;;;;;6248314;28;20602;-78
2023/02/03 15:17:03;;;;;;;1.17;1.17;;;;;;;;;;6234705;28;20270;-76
2023/02/03 15:20:30;;;;;;;1.83;1.83;;;;;;;;;;6235515;28;20309;-77
2023/02/03 15:23:41;;;;;;;1.70;1.70;;;;;;;;;;6236853;28;20438;-77
2023/02/03 15:26:48;;;;;;;1.50;1.50;;;;;;;;;;6239401;28;20298;-77
2023/02/03 15:29:57;;;;;;;1.70;1.53;;;;;;;;;;6238221;28;20310;-77
2023/02/03 15:33:06;;;;;;;1.53;1.53;;;;;;;;;;6238669;28;20488;-76
2023/02/03 15:36:15;;;;;;;1.60;1.57;;;;;;;;;;6237711;28;20608;-78
2023/02/03 15:39:33;;;;;;;1.60;1.47;;;;;;;;;;6236841;28;20290;-77
2023/02/03 15:42:41;;;;;;;1.50;1.50;;;;;;;;;;6238482;28;20291;-77
2023/02/03 15:45:58;;;;;;;2.00;1.30;;;;;;;;;;6236885;28;20298;-77
2023/02/03 15:49:06;;;;;;;1.70;1.60;;;;;;;;;;6237921;28;20303;-77
2023/02/03 15:52:14;;;;;;;1.50;1.50;;;;;;;;;;6238547;28;20298;-78
2023/02/03 15:55:24;;;;;;;3.33;2.00;;;;;;;;;;6238399;28;20293;-77
2023/02/03 15:58:33;;;;;;;2.93;1.70;;;;;;;;;;6238087;28;20311;-77
2023/02/03 16:01:41;;;;;;;2.00;1.93;;;;;;;;;;6244245;28;20477;-76
2023/02/03 16:04:46;;;;;;;1.87;1.77;;;;;;;;;;6261892;28;20306;-77
2023/02/03 16:07:52;;;;;;;3.13;1.67;;;;;;;;;;6261678;28;20466;-76
2023/02/03 16:10:58;;;;;;;2.60;2.43;;;;;;;;;;6261838;28;20300;-77
2023/02/03 16:14:05;;;;;;;2.20;2.10;;;;;;;;;;6237376;28;20626;-77
2023/02/03 16:17:26;;;;;;;2.37;2.20;;;;;;;;;;6237539;28;20294;-77
2023/02/03 16:20:32;;;;;;;1.90;1.90;;;;;;;;;;6237069;28;20306;-77
2023/02/03 16:23:37;;;;;;;1.93;1.90;;;;;;;;;;6237155;28;20285;-77
2023/02/03 16:26:42;;;;;;;2.67;1.80;;;;;;;;;;6237788;28;20290;-77
2023/02/03 16:53:46;;;;;;;2.10;1.93;;;;;;;;;;6236205;28;20620;-77
2023/02/03 16:56:52;;;;;;;1.97;1.93;;;;;;;;;;6236216;28;20295;-78
2023/02/03 16:59:57;;;;;;;3.07;1.87;;;;;;;;;;6257231;28;20398;-78
2023/02/03 17:03:04;;;;;;;1.93;1.83;;;;;;;;;;6227662;28;20333;-78
2023/02/03 17:06:13;;;;;;;1.63;1.60;;;;;;;;;;6227274;28;20300;-77
2023/02/03 17:09:26;;;;;;;2.00;1.90;;;;;;;;;;6211360;28;20314;-78
2023/02/03 17:12:32;;;;;;;2.47;2.27;;;;;;;;;;6203416;28;20326;-78
2023/02/03 17:15:40;;;;;;;1.77;1.43;;;;;;;;;;6211433;28;20299;-78
2023/02/03 17:18:46;;;;;;;2.13;2.13;;;;;;;;;;6211354;28;20300;-77
2023/02/03 17:21:53;;;;;;;1.80;1.70;;;;;;;;;;6211505;28;20320;-78
2023/02/03 17:24:58;;;;;;;1.60;1.60;;;;;;;;;;6211227;28;20294;-79
2023/02/03 17:28:03;;;;;;;1.70;1.60;;;;;;;;;;6225780;28;20326;-79
2023/02/03 17:31:10;;;;;;;2.23;2.00;;;;;;;;;;6211434;28;20318;-78
2023/02/03 17:34:16;;;;;;;1.80;1.80;;;;;;;;;;6211804;28;20312;-79
2023/02/03 17:37:22;;;;;;;2.30;1.97;;;;;;;;;;6211796;28;20316;-78
2023/02/03 17:40:28;;;;;;;2.17;2.00;;;;;;;;;;6210934;28;20299;-79
2023/02/03 17:43:52;;;;;;;3.77;2.30;;;;;;;;;;6209040;28;20498;-79
2023/02/03 17:47:15;;;;;;;3.73;2.30;;;;;;;;;;6209520;28;20299;-79
2023/02/03 17:50:37;;;;;;;1.83;1.73;;;;;;;;;;6211045;28;20310;-78
2023/02/03 17:54:04;;;;;;;1.83;1.83;;;;;;;;;;6211195;28;20317;-79
2023/02/03 17:57:11;;;;;;;3.40;3.20;;;;;;;;;;6211734;28;20310;-79
2023/02/03 18:00:18;;;;;;;3.10;3.00;;;;;;;;;;6211004;28;20285;-78
2023/02/03 18:03:23;;;;;;;5.30;2.70;;;;;;;;;;6251327;28;20297;-79
2023/02/03 18:06:30;;;;;;;2.07;2.00;;;;;;;;;;6240606;28;20608;-78
2023/02/03 18:09:36;;;;;;;2.30;2.20;;;;;;;;;;6259276;28;20319;-79
2023/02/03 18:12:42;;;;;;;1.53;1.53;;;;;;;;;;6259776;28;20460;-78
2023/02/03 18:15:47;;;;;;;1.50;1.50;;;;;;;;;;6258460;28;20318;-79
2023/02/03 18:18:54;;;;;;;1.70;1.60;;;;;;;;;;6259252;28;20298;-78
2023/02/03 18:22:04;;;;;;;1.60;1.50;;;;;;;;;;6259971;28;20297;-78
2023/02/03 18:25:16;;;;;;;1.70;1.70;;;;;;;;;;6257921;28;20289;-78
2023/02/03 18:28:22;;;;;;;1.27;1.27;;;;;;;;;;6242522;28;20466;-77
2023/02/03 18:31:28;;;;;;;1.70;1.70;;;;;;;;;;6259174;28;20297;-79
2023/02/03 18:34:33;;;;;;;2.33;1.37;;;;;;;;;;6258611;28;20477;-78
2023/02/03 18:37:38;;;;;;;1.60;1.50;;;;;;;;;;6259095;28;20289;-79
2023/02/03 18:40:45;;;;;;;2.13;1.80;;;;;;;;;;6241405;28;20303;-79
2023/02/03 18:43:51;;;;;;;2.00;1.90;;;;;;;;;;6256952;28;20301;-79
2023/02/03 18:47:05;;;;;;;2.20;1.63;;;;;;;;;;6259878;28;20558;-79
2023/02/03 18:50:11;;;;;;;1.90;1.60;;;;;;;;;;6241741;28;20302;-78
2023/02/03 18:53:17;;;;;;;1.50;1.40;;;;;;;;;;6259200;28;20298;-79
2023/02/03 18:56:33;;;;;;;2.63;2.00;;;;;;;;;;6262430;28;20295;-79
2023/02/03 18:59:39;;;;;;;2.10;1.73;;;;;;;;;;6263390;28;20286;-78
2023/02/03 19:02:44;;;;;;;1.80;1.80;;;;;;;;;;6262202;28;20293;-78
2023/02/03 19:05:49;;;;;;;1.80;1.40;;;;;;;;;;6264976;28;20286;-79
2023/02/03 19:08:55;;;;;;;2.03;1.93;;;;;;;;;;6276820;28;20282;-78
2023/02/03 19:12:03;;;;;;;2.77;2.50;;;;;;;;;;6263120;28;20297;-79
2023/02/03 19:15:09;;;;;;;2.83;1.87;;;;;;;;;;6260587;28;20268;-79
2023/02/03 19:18:15;;;;;;;1.93;1.77;;;;;;;;;;6264981;28;20570;-79
2023/02/03 19:21:20;;;;;;;2.53;1.70;;;;;;;;;;6246233;28;20320;-78
2023/02/03 19:24:26;;;;;;;2.13;1.90;;;;;;;;;;6261541;28;20296;-79
2023/02/03 19:27:34;;;;;;;2.10;2.00;;;;;;;;;;6263912;28;20292;-79